Time;durP1;ratioP1;P1;durP2;ratioP2;P2;SDS_P1;SDS_P2;PMS_P1;PMS_P2;Temp;Humidity;BMP_temperature;BMP_pressure;BME280_temperature;BME280_humidity;BME280_pressure;Samples;Min_cycle;Max_cycle;Signal;HPM_P1;HPM_P2
2022/08/11 00:02:46;;;;;;;;;;;21.30;41.40;;;;;;4928243;29;19911;-94
2022/08/11 00:05:13;;;;;;;;;;;21.20;41.40;;;;;;4926695;29;19915;-94
2022/08/11 00:07:46;;;;;;;;;;;21.20;41.40;;;;;;4912559;29;19915;-95
2022/08/11 00:10:13;;;;;;;;;;;21.20;41.70;;;;;;4896300;29;20371;-94
2022/08/11 00:12:40;;;;;;;;;;;21.20;41.90;;;;;;4910691;29;19999;-94
2022/08/11 00:15:06;;;;;;;;;;;21.10;42.10;;;;;;4921463;29;19919;-93
2022/08/11 00:17:32;;;;;;;;;;;21.00;42.40;;;;;;4945463;29;19943;-93
2022/08/11 00:20:07;;;;;;;;;;;21.00;42.60;;;;;;4915478;29;19915;-92
2022/08/11 00:22:34;;;;;;;;;;;20.90;42.80;;;;;;4906837;29;20022;-91
2022/08/11 00:25:07;;;;;;;;;;;20.80;42.90;;;;;;4923810;29;19919;-91
2022/08/11 00:27:34;;;;;;;;;;;20.80;42.90;;;;;;4906502;29;20436;-91
2022/08/11 00:30:00;;;;;;;;;;;20.80;43.20;;;;;;4918234;29;19911;-91
2022/08/11 00:32:26;;;;;;;;;;;20.70;43.30;;;;;;4925946;29;19919;-92
2022/08/11 00:34:53;;;;;;;;;;;20.70;43.10;;;;;;4925414;29;19911;-92
2022/08/11 00:37:20;;;;;;;;;;;20.70;43.20;;;;;;4909840;29;19914;-92
2022/08/11 00:39:47;;;;;;;;;;;20.60;43.10;;;;;;4925546;29;19918;-92
2022/08/11 00:42:39;;;;;;;;;;;20.60;43.30;;;;;;4924803;29;19953;-92
2022/08/11 00:45:20;;;;;;;;;;;20.50;43.50;;;;;;4931710;29;20025;-92
2022/08/11 00:47:54;;;;;;;;;;;20.40;43.70;;;;;;4956208;29;19926;-92
2022/08/11 00:50:26;;;;;;;;;;;20.40;44.00;;;;;;4942092;29;19915;-92
2022/08/11 00:53:04;;;;;;;;;;;20.30;44.00;;;;;;4956602;29;19915;-89
2022/08/11 00:55:50;;;;;;;;;;;20.30;43.80;;;;;;4925303;29;19915;-92
2022/08/11 00:58:24;;;;;;;;;;;20.30;43.70;;;;;;4943019;29;20018;-90
2022/08/11 01:01:05;;;;;;;;;;;20.20;44.10;;;;;;4941751;29;19947;-90
2022/08/11 01:03:50;;;;;;;;;;;20.20;44.00;;;;;;4942662;29;19926;-90
2022/08/11 01:06:33;;;;;;;;;;;20.20;44.10;;;;;;4922383;29;19915;-90
2022/08/11 01:09:12;;;;;;;;;;;20.10;44.20;;;;;;4923105;29;20009;-89
2022/08/11 01:11:47;;;;;;;;;;;20.00;44.30;;;;;;4906666;29;19950;-90
2022/08/11 01:14:37;;;;;;;;;;;20.00;44.40;;;;;;4906981;29;19921;-90
2022/08/11 01:17:28;;;;;;;;;;;20.00;44.50;;;;;;4918040;29;19923;-90
2022/08/11 01:20:13;;;;;;;;;;;20.00;44.50;;;;;;4917061;29;19923;-91
2022/08/11 01:22:51;;;;;;;;;;;20.00;44.40;;;;;;4942149;28;19918;-91
2022/08/11 01:25:44;;;;;;;;;;;20.00;44.40;;;;;;4956585;28;19974;-90
2022/08/11 01:28:16;;;;;;;;;;;19.90;44.50;;;;;;4957519;28;19899;-91
2022/08/11 01:31:07;;;;;;;;;;;19.80;44.80;;;;;;4950730;28;20280;-92
2022/08/11 01:33:54;;;;;;;;;;;19.80;44.90;;;;;;4943467;29;19918;-91
2022/08/11 01:36:38;;;;;;;;;;;19.80;45.10;;;;;;4943478;29;20431;-92
2022/08/11 01:39:22;;;;;;;;;;;19.80;45.70;;;;;;4942532;29;19939;-92
2022/08/11 01:44:51;;;;;;;;;;;19.70;45.80;;;;;;4932842;29;19938;-93
2022/08/11 01:50:20;;;;;;;;;;;19.60;46.20;;;;;;4925118;29;19957;-92
2022/08/11 01:53:12;;;;;;;;;;;19.50;46.30;;;;;;4906847;29;19919;-90
2022/08/11 01:55:42;;;;;;;;;;;19.50;46.80;;;;;;4899875;29;19903;-90
2022/08/11 01:58:26;;;;;;;;;;;19.50;47.10;;;;;;4905004;29;19919;-91
2022/08/11 02:01:09;;;;;;;;;;;19.40;47.20;;;;;;4941781;29;19942;-92
2022/08/11 02:03:43;;;;;;;;;;;19.40;47.40;;;;;;4942144;29;19919;-91
2022/08/11 02:09:10;;;;;;;;;;;19.30;47.30;;;;;;4927353;29;20414;-91
2022/08/11 02:11:36;;;;;;;;;;;19.30;47.10;;;;;;4925623;29;19919;-91
2022/08/11 02:14:18;;;;;;;;;;;19.20;47.30;;;;;;4921277;29;19903;-91
2022/08/11 02:16:47;;;;;;;;;;;19.20;47.70;;;;;;4907295;29;19974;-91
2022/08/11 02:25:21;;;;;;;;;;;19.20;47.60;;;;;;4931906;29;20002;-90
2022/08/11 02:27:55;;;;;;;;;;;19.20;47.60;;;;;;4923317;29;20288;-91
2022/08/11 02:30:23;;;;;;;;;;;19.20;47.50;;;;;;4924493;29;19915;-91
2022/08/11 02:35:48;;;;;;;;;;;19.20;47.80;;;;;;4928642;29;20370;-90
2022/08/11 02:38:24;;;;;;;;;;;19.10;47.90;;;;;;4927748;29;19970;-92
2022/08/11 02:40:59;;;;;;;;;;;19.10;47.90;;;;;;4909571;29;19958;-90
2022/08/11 02:43:38;;;;;;;;;;;19.10;47.90;;;;;;4920146;29;19925;-90
2022/08/11 02:46:14;;;;;;;;;;;19.10;47.80;;;;;;4926420;29;19915;-91
2022/08/11 02:51:52;;;;;;;;;;;19.00;47.60;;;;;;4944263;29;19986;-89
2022/08/11 02:54:36;;;;;;;;;;;19.00;47.90;;;;;;4943726;29;20311;-89
2022/08/11 02:57:11;;;;;;;;;;;18.90;47.70;;;;;;4942828;29;20351;-89
2022/08/11 02:59:49;;;;;;;;;;;18.90;48.00;;;;;;4942638;29;19918;-89
2022/08/11 03:02:33;;;;;;;;;;;18.90;48.10;;;;;;4942494;29;19919;-88
2022/08/11 03:05:10;;;;;;;;;;;18.90;48.30;;;;;;4942751;29;20031;-89
2022/08/11 03:07:39;;;;;;;;;;;18.80;48.50;;;;;;4927333;29;20009;-89
2022/08/11 03:10:27;;;;;;;;;;;18.80;48.50;;;;;;4930985;29;19912;-89
2022/08/11 03:19:00;;;;;;;;;;;18.70;48.60;;;;;;4936775;29;19930;-90
2022/08/11 03:21:55;;;;;;;;;;;18.70;48.70;;;;;;4929268;29;19923;-91
2022/08/11 03:24:27;;;;;;;;;;;18.70;48.70;;;;;;4934896;29;19915;-92
2022/08/11 03:26:59;;;;;;;;;;;18.70;48.70;;;;;;4929619;29;19923;-92
2022/08/11 03:29:30;;;;;;;;;;;18.70;49.00;;;;;;4927921;29;20001;-92
2022/08/11 03:32:01;;;;;;;;;;;18.60;49.10;;;;;;4912700;29;19903;-92
2022/08/11 03:34:29;;;;;;;;;;;18.60;49.10;;;;;;4919985;29;19922;-92
2022/08/11 03:36:59;;;;;;;;;;;18.60;49.00;;;;;;4930816;29;20523;-92
2022/08/11 03:39:41;;;;;;;;;;;18.60;49.20;;;;;;4938504;29;19971;-93
2022/08/11 03:42:21;;;;;;;;;;;18.60;49.40;;;;;;4913350;29;19919;-92
2022/08/11 03:44:51;;;;;;;;;;;18.50;49.50;;;;;;4920339;29;19922;-92
2022/08/11 03:47:36;;;;;;;;;;;18.50;49.40;;;;;;4912702;29;19911;-92
2022/08/11 04:26:14;;;;;;;;;;;18.90;51.40;;;;;;4943457;29;19927;-92
2022/08/11 04:29:02;;;;;;;;;;;19.10;51.60;;;;;;4945687;29;19914;-93
2022/08/11 04:31:43;;;;;;;;;;;19.30;51.80;;;;;;4917568;29;19919;-93
2022/08/11 04:34:29;;;;;;;;;;;19.60;51.80;;;;;;4914741;29;19915;-93
2022/08/11 04:39:54;;;;;;;;;;;20.20;51.70;;;;;;4938099;29;19938;-92
2022/08/11 04:45:23;;;;;;;;;;;20.80;51.60;;;;;;4938142;29;20280;-92
2022/08/11 05:36:46;;;;;;;;;;;29.30;40.60;;;;;;4924813;29;19922;-88
2022/08/11 05:58:38;;;;;;;;;;;33.10;34.70;;;;;;4921922;29;19971;-89
2022/08/11 06:01:04;;;;;;;;;;;33.50;34.10;;;;;;4904193;29;19927;-89
2022/08/11 06:03:31;;;;;;;;;;;33.90;33.40;;;;;;4903371;29;19979;-89
2022/08/11 06:05:58;;;;;;;;;;;34.30;32.80;;;;;;4940329;29;19915;-89
2022/08/11 06:08:28;;;;;;;;;;;34.70;32.20;;;;;;4941236;29;19915;-90
2022/08/11 06:10:58;;;;;;;;;;;35.00;31.60;;;;;;4908302;29;19977;-90
2022/08/11 06:13:24;;;;;;;;;;;35.40;31.10;;;;;;4924567;29;19914;-90
2022/08/11 06:15:50;;;;;;;;;;;35.80;30.30;;;;;;4955063;28;19915;-89
2022/08/11 06:18:17;;;;;;;;;;;36.20;29.60;;;;;;4924791;29;19914;-90
2022/08/11 06:20:45;;;;;;;;;;;36.60;29.20;;;;;;4949423;29;20017;-89
2022/08/11 06:23:13;;;;;;;;;;;37.00;28.70;;;;;;4922942;29;20397;-90
2022/08/11 06:25:42;;;;;;;;;;;37.30;28.30;;;;;;4940956;29;19919;-91
2022/08/11 06:28:08;;;;;;;;;;;37.50;27.80;;;;;;4925417;29;20350;-89
2022/08/11 06:30:42;;;;;;;;;;;37.90;27.20;;;;;;4943206;29;19970;-92
2022/08/11 06:33:10;;;;;;;;;;;38.20;26.80;;;;;;4908056;29;19911;-91
2022/08/11 06:35:51;;;;;;;;;;;38.60;26.30;;;;;;4923571;29;19925;-91
2022/08/11 06:38:24;;;;;;;;;;;38.90;26.00;;;;;;4940751;29;20393;-91
2022/08/11 06:43:42;;;;;;;;;;;39.70;25.00;;;;;;4924283;29;19922;-89
2022/08/11 06:46:10;;;;;;;;;;;40.00;24.30;;;;;;4940304;29;20368;-90
2022/08/11 06:48:38;;;;;;;;;;;40.20;24.00;;;;;;4924028;29;20379;-91
2022/08/11 06:51:11;;;;;;;;;;;40.50;23.60;;;;;;4924216;29;19930;-91
2022/08/11 06:53:44;;;;;;;;;;;40.80;22.90;;;;;;4908345;29;19918;-91
2022/08/11 07:01:46;;;;;;;;;;;41.70;22.20;;;;;;4942427;29;19935;-92
2022/08/11 07:04:13;;;;;;;;;;;42.00;21.30;;;;;;4935242;29;19949;-92
2022/08/11 07:06:44;;;;;;;;;;;42.20;21.00;;;;;;4923458;29;19920;-92
2022/08/11 07:29:02;;;;;;;;;;;44.20;19.20;;;;;;4921357;29;19965;-85
2022/08/11 07:31:48;;;;;;;;;;;44.40;19.00;;;;;;4903726;29;19919;-86
2022/08/11 07:34:18;;;;;;;;;;;44.70;18.40;;;;;;4918854;29;19919;-87
2022/08/11 07:37:06;;;;;;;;;;;45.00;18.30;;;;;;4919373;29;19923;-87
2022/08/11 07:39:32;;;;;;;;;;;45.20;18.30;;;;;;4924037;29;19962;-86
2022/08/11 07:41:58;;;;;;;;;;;45.40;18.00;;;;;;4920309;29;19987;-86
2022/08/11 07:44:28;;;;;;;;;;;45.70;18.00;;;;;;4919853;29;19919;-86
2022/08/11 07:52:33;;;;;;;;;;;46.20;17.50;;;;;;4940239;29;19922;-87
2022/08/11 07:55:18;;;;;;;;;;;46.30;17.60;;;;;;4928780;29;19967;-87
2022/08/11 08:19:39;;;;;;;;;;;47.80;15.50;;;;;;4921135;29;19971;-88
2022/08/11 08:22:06;;;;;;;;;;;48.00;15.40;;;;;;4922162;29;19919;-85
2022/08/11 08:24:32;;;;;;;;;;;48.00;15.30;;;;;;4922687;29;19919;-87
2022/08/11 08:26:58;;;;;;;;;;;48.20;15.30;;;;;;4921338;29;19911;-87
2022/08/11 08:32:12;;;;;;;;;;;48.30;14.40;;;;;;4925535;29;19963;-88
2022/08/11 08:34:39;;;;;;;;;;;48.40;14.20;;;;;;4929128;29;19919;-88
2022/08/11 08:37:06;;;;;;;;;;;48.30;13.90;;;;;;4912882;29;19914;-87
2022/08/11 08:39:33;;;;;;;;;;;48.30;13.50;;;;;;4928474;29;19995;-87
2022/08/11 08:42:01;;;;;;;;;;;48.00;13.20;;;;;;4926289;29;19935;-87
2022/08/11 08:44:27;;;;;;;;;;;47.80;13.40;;;;;;4930969;29;19915;-88
2022/08/11 08:46:57;;;;;;;;;;;47.80;13.70;;;;;;4910815;29;20034;-86
2022/08/11 08:49:30;;;;;;;;;;;48.10;13.70;;;;;;4938375;29;19915;-87
2022/08/11 08:51:57;;;;;;;;;;;48.30;13.30;;;;;;4921504;29;19978;-88
2022/08/11 08:54:27;;;;;;;;;;;48.20;12.80;;;;;;4938588;29;19925;-87
2022/08/11 08:56:54;;;;;;;;;;;48.20;13.00;;;;;;4920594;29;20351;-86
2022/08/11 08:59:21;;;;;;;;;;;48.10;12.90;;;;;;4920731;29;20317;-86
2022/08/11 09:02:06;;;;;;;;;;;47.90;12.90;;;;;;4937523;29;19958;-86
2022/08/11 09:04:32;;;;;;;;;;;47.90;13.00;;;;;;4936285;29;20025;-87
2022/08/11 09:07:02;;;;;;;;;;;47.90;13.10;;;;;;4921341;29;19954;-89
2022/08/11 09:09:27;;;;;;;;;;;47.70;13.00;;;;;;4921663;29;19915;-87
2022/08/11 09:11:53;;;;;;;;;;;47.70;13.30;;;;;;4920281;29;19973;-88
2022/08/11 09:14:20;;;;;;;;;;;47.90;13.30;;;;;;4937166;29;19919;-87
2022/08/11 09:16:46;;;;;;;;;;;48.00;13.30;;;;;;4921342;29;19922;-88
2022/08/11 09:19:16;;;;;;;;;;;48.20;13.40;;;;;;4938567;29;19929;-87
2022/08/11 09:21:43;;;;;;;;;;;48.50;12.90;;;;;;4920451;29;19918;-88
2022/08/11 09:27:02;;;;;;;;;;;48.20;13.20;;;;;;4946097;29;19917;-88
2022/08/11 09:29:29;;;;;;;;;;;48.30;13.00;;;;;;4947506;29;19918;-89
2022/08/11 09:31:55;;;;;;;;;;;48.40;13.00;;;;;;4945281;29;20401;-89
2022/08/11 09:34:21;;;;;;;;;;;48.40;12.90;;;;;;4943238;29;19919;-88
2022/08/11 09:42:22;;;;;;;;;;;49.00;12.80;;;;;;4937297;29;20284;-89
2022/08/11 09:44:48;;;;;;;;;;;48.80;12.20;;;;;;4920626;29;19903;-89
2022/08/11 09:47:27;;;;;;;;;;;48.80;11.70;;;;;;4937774;29;20205;-87
2022/08/11 09:49:54;;;;;;;;;;;48.70;11.60;;;;;;4936506;29;19922;-87
2022/08/11 09:52:22;;;;;;;;;;;48.40;11.30;;;;;;4919523;29;20005;-87
2022/08/11 09:54:49;;;;;;;;;;;48.10;11.10;;;;;;4936380;29;20570;-88
2022/08/11 10:00:02;;;;;;;;;;;47.60;11.20;;;;;;4945486;29;19921;-86
2022/08/11 10:02:28;;;;;;;;;;;47.20;11.60;;;;;;4919852;29;20639;-86
2022/08/11 10:07:00;;;;;;;;;;;47.10;11.60;;;;;;4909712;29;19945;-86
2022/08/11 10:07:49;;;;;;;;;;;47.10;12.00;;;;;;4917399;29;20046;-87
2022/08/11 10:10:21;;;;;;;;;;;47.30;11.60;;;;;;4920476;29;19922;-87
2022/08/11 10:12:48;;;;;;;;;;;47.20;11.60;;;;;;4923618;29;19966;-86
2022/08/11 10:15:34;;;;;;;;;;;47.20;11.40;;;;;;4930611;29;20423;-87
2022/08/11 10:20:49;;;;;;;;;;;47.10;11.80;;;;;;4928327;29;19925;-87
2022/08/11 10:28:43;;;;;;;;;;;47.80;12.00;;;;;;4933275;29;19969;-88
2022/08/11 10:33:58;;;;;;;;;;;48.20;11.40;;;;;;4917644;29;20332;-87
2022/08/11 10:36:25;;;;;;;;;;;48.20;11.10;;;;;;4915983;29;20269;-88
2022/08/11 10:38:51;;;;;;;;;;;48.10;11.10;;;;;;4917768;29;19978;-87
2022/08/11 10:44:02;;;;;;;;;;;48.40;11.20;;;;;;4918177;29;19958;-88
2022/08/11 10:49:11;;;;;;;;;;;48.50;11.00;;;;;;4923706;29;19986;-88
2022/08/11 10:59:49;;;;;;;;;;;48.50;10.90;;;;;;4940854;29;19970;-88
2022/08/11 11:02:15;;;;;;;;;;;48.70;10.80;;;;;;4940636;29;19911;-88
2022/08/11 11:04:41;;;;;;;;;;;48.80;10.70;;;;;;4935757;29;19926;-88
2022/08/11 11:07:13;;;;;;;;;;;48.80;10.90;;;;;;4936217;29;19934;-89
2022/08/11 11:09:49;;;;;;;;;;;49.00;11.00;;;;;;4921583;29;19926;-87
2022/08/11 11:17:55;;;;;;;;;;;49.20;10.70;;;;;;4921379;29;19925;-87
2022/08/11 11:20:33;;;;;;;;;;;49.10;11.00;;;;;;4920956;29;19958;-87
2022/08/11 11:23:18;;;;;;;;;;;49.40;11.00;;;;;;4921490;29;19946;-87
2022/08/11 11:26:05;;;;;;;;;;;49.70;11.00;;;;;;4921742;29;20403;-88
2022/08/11 11:28:46;;;;;;;;;;;49.70;10.50;;;;;;4922286;29;19926;-88
2022/08/11 11:31:29;;;;;;;;;;;49.50;10.70;;;;;;4923452;29;19915;-89
2022/08/11 11:34:04;;;;;;;;;;;49.60;10.60;;;;;;4921886;29;19966;-88
2022/08/11 11:36:42;;;;;;;;;;;49.50;10.50;;;;;;4924058;29;19922;-88
2022/08/11 11:39:08;;;;;;;;;;;49.30;10.50;;;;;;4939833;29;19919;-90
2022/08/11 11:41:34;;;;;;;;;;;49.30;10.70;;;;;;4940797;29;19915;-88
2022/08/11 11:44:00;;;;;;;;;;;49.60;10.80;;;;;;4922645;29;19958;-88
2022/08/11 11:46:26;;;;;;;;;;;49.70;10.40;;;;;;4922485;29;19997;-88
2022/08/11 11:48:53;;;;;;;;;;;49.10;10.10;;;;;;4936055;29;20021;-88
2022/08/11 11:51:19;;;;;;;;;;;48.60;10.30;;;;;;4921962;29;19938;-87
2022/08/11 11:53:45;;;;;;;;;;;48.10;10.60;;;;;;4904701;29;19969;-87
2022/08/11 11:56:11;;;;;;;;;;;48.10;10.70;;;;;;4903769;29;19954;-87
2022/08/11 12:01:24;;;;;;;;;;;48.80;10.80;;;;;;4938784;29;20381;-88
2022/08/11 12:03:50;;;;;;;;;;;49.00;10.40;;;;;;4923112;29;19919;-86
2022/08/11 12:06:16;;;;;;;;;;;48.50;10.20;;;;;;4938997;29;19918;-87
2022/08/11 12:08:43;;;;;;;;;;;48.00;10.50;;;;;;4939444;29;19926;-87
2022/08/11 12:13:54;;;;;;;;;;;48.30;10.90;;;;;;4941455;29;20014;-90
2022/08/11 12:16:22;;;;;;;;;;;48.70;10.90;;;;;;4939693;29;19911;-89
2022/08/11 12:18:51;;;;;;;;;;;49.00;10.90;;;;;;4940437;29;19926;-88
2022/08/11 12:21:17;;;;;;;;;;;49.20;10.70;;;;;;4935450;29;20010;-88
2022/08/11 12:27:29;;;;;;;;;;;48.80;10.50;;;;;;4927695;29;20287;-89
2022/08/11 12:29:27;;;;;;;;;;;48.60;10.50;;;;;;4932024;29;19915;-89
2022/08/11 12:31:53;;;;;;;;;;;48.50;10.70;;;;;;4939591;29;20264;-88
2022/08/11 12:34:20;;;;;;;;;;;48.70;10.80;;;;;;4939688;29;19915;-90
2022/08/11 12:36:49;;;;;;;;;;;49.00;10.90;;;;;;4923832;29;20320;-89
2022/08/11 12:39:19;;;;;;;;;;;49.30;10.80;;;;;;4939991;29;20267;-90
2022/08/11 12:47:15;;;;;;;;;;;48.00;10.60;;;;;;4922739;29;19922;-88
2022/08/11 12:52:32;;;;;;;;;;;47.00;10.70;;;;;;4921290;29;20006;-88
2022/08/11 12:54:58;;;;;;;;;;;46.50;10.90;;;;;;4905514;29;20002;-90
2022/08/11 13:05:51;;;;;;;;;;;44.60;11.80;;;;;;4920459;29;20319;-87
2022/08/11 13:08:16;;;;;;;;;;;44.10;12.10;;;;;;4921286;29;19916;-89
2022/08/11 13:13:28;;;;;;;;;;;43.40;12.50;;;;;;4920448;29;19923;-88
2022/08/11 13:15:54;;;;;;;;;;;43.20;12.70;;;;;;4904832;29;19919;-87
2022/08/11 13:18:22;;;;;;;;;;;43.00;12.80;;;;;;4925271;29;19958;-88
2022/08/11 13:20:54;;;;;;;;;;;42.80;13.00;;;;;;4921117;29;19919;-87
2022/08/11 13:23:21;;;;;;;;;;;42.80;13.10;;;;;;4919607;29;20368;-89
2022/08/11 13:25:48;;;;;;;;;;;42.60;13.00;;;;;;4938433;29;19930;-88
2022/08/11 13:28:15;;;;;;;;;;;42.30;12.70;;;;;;4939723;29;19922;-88
2022/08/11 13:33:25;;;;;;;;;;;41.30;13.20;;;;;;4939533;29;20390;-87
2022/08/11 13:35:52;;;;;;;;;;;41.00;13.50;;;;;;4922758;29;19947;-86
2022/08/11 13:38:20;;;;;;;;;;;40.90;13.80;;;;;;4920880;29;19919;-86
2022/08/11 13:40:46;;;;;;;;;;;40.80;13.70;;;;;;4938027;29;19958;-86
2022/08/11 13:43:12;;;;;;;;;;;40.50;13.80;;;;;;4938372;29;19942;-87
2022/08/11 13:45:38;;;;;;;;;;;40.20;13.90;;;;;;4936651;29;19986;-87
2022/08/11 13:48:07;;;;;;;;;;;40.10;14.10;;;;;;4916173;29;19958;-87
2022/08/11 13:53:19;;;;;;;;;;;40.10;14.40;;;;;;4938006;29;19929;-86
2022/08/11 13:55:45;;;;;;;;;;;40.00;14.30;;;;;;4920947;29;20367;-87
2022/08/11 13:58:11;;;;;;;;;;;39.80;14.40;;;;;;4937653;29;19919;-86
2022/08/11 14:00:37;;;;;;;;;;;39.80;14.50;;;;;;4936869;29;20021;-87
2022/08/11 14:03:04;;;;;;;;;;;39.60;14.40;;;;;;4936734;29;20431;-87
2022/08/11 14:05:36;;;;;;;;;;;39.50;14.60;;;;;;4920309;29;20066;-88
2022/08/11 14:08:06;;;;;;;;;;;39.40;14.80;;;;;;4938919;29;20046;-86
2022/08/11 14:10:32;;;;;;;;;;;39.30;15.00;;;;;;4937340;29;19990;-86
2022/08/11 14:15:45;;;;;;;;;;;39.20;15.00;;;;;;4928641;29;20033;-87
2022/08/11 14:18:16;;;;;;;;;;;39.00;15.10;;;;;;4936917;29;19934;-86
2022/08/11 14:23:27;;;;;;;;;;;38.50;15.40;;;;;;4937782;29;19990;-86
2022/08/11 14:28:38;;;;;;;;;;;37.90;15.80;;;;;;4922417;29;20292;-86
2022/08/11 14:31:06;;;;;;;;;;;37.70;16.20;;;;;;4915497;29;19927;-87
2022/08/11 14:33:32;;;;;;;;;;;37.50;16.30;;;;;;4924913;29;20011;-86
2022/08/11 14:35:58;;;;;;;;;;;37.30;16.50;;;;;;4940157;29;19925;-86
2022/08/11 14:38:23;;;;;;;;;;;37.20;16.60;;;;;;4936021;29;19919;-86
2022/08/11 14:49:03;;;;;;;;;;;36.70;16.90;;;;;;4927102;29;19922;-88
2022/08/11 14:51:29;;;;;;;;;;;36.70;16.90;;;;;;4942979;29;19915;-87
2022/08/11 14:56:34;;;;;;;;;;;36.50;16.80;;;;;;4924288;29;19962;-87
2022/08/11 14:56:41;;;;;;;;;;;36.50;16.90;;;;;;4940683;29;20391;-87
2022/08/11 14:59:07;;;;;;;;;;;36.40;16.80;;;;;;4941823;29;19966;-87
2022/08/11 15:04:20;;;;;;;;;;;36.20;17.00;;;;;;4941859;29;19937;-86
2022/08/11 15:06:46;;;;;;;;;;;36.10;17.10;;;;;;4923444;29;19982;-86
2022/08/11 15:09:11;;;;;;;;;;;36.00;17.20;;;;;;4920825;29;20545;-86
2022/08/11 15:17:08;;;;;;;;;;;35.90;17.40;;;;;;4920528;29;20284;-85
2022/08/11 15:19:34;;;;;;;;;;;35.80;17.40;;;;;;4940892;29;19919;-87
2022/08/11 15:24:44;;;;;;;;;;;35.80;17.50;;;;;;4943339;29;19930;-88
2022/08/11 15:38:35;;;;;;;;;;;35.60;17.30;;;;;;4918899;29;19917;-85
2022/08/11 15:46:41;;;;;;;;;;;35.50;17.40;;;;;;4936002;29;19979;-87
2022/08/11 15:49:15;;;;;;;;;;;35.50;17.60;;;;;;4928290;29;19911;-86
2022/08/11 15:51:49;;;;;;;;;;;35.50;17.60;;;;;;4912901;29;19962;-86
2022/08/11 15:54:22;;;;;;;;;;;35.50;17.70;;;;;;4904747;29;19920;-87
2022/08/11 15:56:49;;;;;;;;;;;35.50;17.90;;;;;;4931037;29;19993;-86
2022/08/11 16:04:45;;;;;;;;;;;35.40;17.60;;;;;;4933485;29;20330;-86
2022/08/11 16:07:15;;;;;;;;;;;35.40;17.60;;;;;;4908269;29;19918;-85
2022/08/11 16:09:46;;;;;;;;;;;35.30;17.60;;;;;;4936937;29;19949;-85
2022/08/11 16:12:13;;;;;;;;;;;35.30;17.70;;;;;;4916288;29;19911;-85
2022/08/11 16:17:25;;;;;;;;;;;35.20;17.90;;;;;;4940638;29;20717;-84
2022/08/11 16:19:52;;;;;;;;;;;35.20;17.80;;;;;;4935212;29;19954;-85
2022/08/11 16:22:20;;;;;;;;;;;35.10;17.90;;;;;;4919961;29;19923;-87
2022/08/11 16:24:48;;;;;;;;;;;35.10;17.90;;;;;;4921361;29;20021;-86
2022/08/11 16:27:17;;;;;;;;;;;35.10;17.90;;;;;;4904014;29;19916;-85
2022/08/11 16:29:46;;;;;;;;;;;35.10;17.70;;;;;;4903664;29;20241;-85
2022/08/11 16:32:16;;;;;;;;;;;35.10;17.70;;;;;;4920595;29;19923;-87
2022/08/11 16:40:22;;;;;;;;;;;35.00;17.80;;;;;;4900801;29;20319;-88
2022/08/11 16:48:35;;;;;;;;;;;34.80;18.00;;;;;;4918402;29;19965;-86
2022/08/11 16:51:01;;;;;;;;;;;34.80;18.20;;;;;;4922433;29;19915;-85
2022/08/11 16:53:27;;;;;;;;;;;34.70;18.20;;;;;;4939755;29;20260;-88
2022/08/11 16:55:54;;;;;;;;;;;34.70;18.30;;;;;;4925735;29;19919;-86
2022/08/11 17:01:13;;;;;;;;;;;34.70;18.20;;;;;;4904562;29;19934;-86
2022/08/11 17:14:41;;;;;;;;;;;34.50;18.60;;;;;;4927179;29;19947;-86
2022/08/11 17:17:27;;;;;;;;;;;34.50;18.70;;;;;;4921970;29;19977;-86
2022/08/11 17:19:55;;;;;;;;;;;34.50;18.80;;;;;;4923434;29;19981;-87
2022/08/11 17:25:07;;;;;;;;;;;34.40;19.00;;;;;;4938400;29;19942;-85
2022/08/11 17:27:34;;;;;;;;;;;34.40;19.10;;;;;;4935676;29;19925;-86
2022/08/11 17:30:01;;;;;;;;;;;34.30;19.10;;;;;;4939033;29;20268;-88
2022/08/11 17:35:49;;;;;;;;;;;34.30;19.20;;;;;;4937258;29;20371;-87
2022/08/11 17:38:13;;;;;;;;;;;34.30;19.30;;;;;;4936826;29;20403;-86
2022/08/11 17:48:23;;;;;;;;;;;34.30;19.30;;;;;;4937487;29;20009;-86
2022/08/11 17:48:55;;;;;;;;;;;34.10;19.60;;;;;;4938759;29;19966;-86
2022/08/11 17:59:51;;;;;;;;;;;33.80;19.60;;;;;;4927189;29;19970;-86
2022/08/11 18:05:11;;;;;;;;;;;33.70;19.70;;;;;;4920638;29;20299;-87
